createdAt,value
2023-04-15T00:00:34.253Z,75.95
2023-04-15T00:02:19.618Z,76.81
2023-04-15T00:03:53.761Z,76.45
2023-04-15T00:05:25.480Z,76.87
2023-04-15T00:06:57.167Z,76.96
2023-04-15T00:08:30.019Z,76.88
2023-04-15T00:10:02.154Z,77.01
2023-04-15T00:11:33.828Z,76.90
2023-04-15T00:13:05.504Z,77.02
2023-04-15T00:14:37.084Z,77.03
2023-04-15T00:16:09.491Z,77.45
2023-04-15T00:17:41.165Z,77.34
2023-04-15T00:19:13.132Z,77.40
2023-04-15T00:20:44.757Z,78.17
2023-04-15T00:22:17.276Z,78.93
2023-04-15T00:23:52.608Z,78.48
2023-04-15T00:25:24.512Z,78.58
2023-04-15T00:26:56.166Z,78.23
2023-04-15T00:28:28.044Z,78.70
2023-04-15T00:29:59.668Z,77.85
2023-04-15T00:31:32.214Z,78.09
2023-04-15T00:33:03.890Z,78.60
2023-04-15T00:34:36.718Z,78.36
2023-04-15T00:36:08.810Z,78.75
2023-04-15T00:37:40.743Z,79.19
2023-04-15T00:39:13.652Z,78.95
2023-04-15T00:40:47.819Z,78.57
2023-04-15T00:42:21.731Z,78.49
2023-04-15T00:43:53.420Z,78.61
2023-04-15T00:45:26.272Z,78.47
2023-04-15T00:46:58.616Z,78.27
2023-04-15T00:48:30.868Z,78.21
2023-04-15T00:50:02.602Z,78.29
2023-04-15T00:51:36.306Z,78.56
2023-04-15T00:53:07.898Z,78.53
2023-04-15T00:54:39.674Z,79.21
2023-04-15T00:56:11.422Z,78.84
2023-04-15T00:57:43.127Z,79.09
2023-04-15T00:59:15.278Z,79.76
2023-04-15T01:00:47.726Z,79.60
2023-04-15T01:02:20.118Z,80.05
2023-04-15T01:03:52.290Z,80.10
2023-04-15T01:05:25.071Z,80.12
2023-04-15T01:06:56.858Z,80.72
2023-04-15T01:08:29.350Z,80.48
2023-04-15T01:10:01.125Z,80.72
2023-04-15T01:11:35.454Z,80.67
2023-04-15T01:13:07.147Z,80.98
2023-04-15T01:14:38.771Z,81.01
2023-04-15T01:16:11.759Z,81.36
2023-04-15T01:17:43.520Z,80.92
2023-04-15T01:19:17.616Z,80.82
2023-04-15T01:20:49.649Z,80.70
2023-04-15T01:22:21.271Z,80.91
2023-04-15T01:23:55.349Z,80.78
2023-04-15T01:25:34.140Z,81.23
2023-04-15T01:27:06.076Z,81.06
2023-04-15T01:28:38.311Z,81.12
2023-04-15T01:30:11.604Z,81.16
2023-04-15T01:31:51.154Z,81.03
2023-04-15T01:33:23.248Z,81.10
2023-04-15T01:34:54.814Z,81.79
2023-04-15T01:36:29.890Z,81.20
2023-04-15T01:38:06.402Z,82.05
2023-04-15T01:39:38.094Z,81.68
2023-04-15T01:41:09.648Z,81.94
2023-04-15T01:42:41.249Z,81.29
2023-04-15T01:44:13.781Z,81.27
2023-04-15T01:45:45.879Z,80.99
2023-04-15T01:47:17.642Z,81.33
2023-04-15T01:48:49.219Z,81.87
2023-04-15T01:50:21.765Z,82.32
2023-04-15T01:51:54.262Z,82.18
2023-04-15T01:53:26.212Z,82.30
2023-04-15T01:54:57.873Z,81.99
2023-04-15T01:56:29.802Z,82.82
2023-04-15T01:58:01.437Z,83.29
2023-04-15T01:59:33.117Z,82.98
2023-04-15T02:01:04.859Z,82.94
2023-04-15T02:02:37.153Z,83.33
2023-04-15T02:04:16.415Z,83.57
2023-04-15T02:05:48.072Z,83.80
2023-04-15T02:07:19.740Z,83.64
2023-04-15T02:08:51.388Z,82.52
2023-04-15T02:10:23.342Z,82.25
2023-04-15T02:11:54.970Z,82.00
2023-04-15T02:13:27.042Z,82.01
2023-04-15T02:15:00.849Z,82.47
2023-04-15T02:16:32.994Z,82.20
2023-04-15T02:18:04.884Z,82.21
2023-04-15T02:19:36.592Z,82.54
2023-04-15T02:21:08.933Z,82.31
2023-04-15T02:22:43.084Z,82.77
2023-04-15T02:24:14.676Z,83.52
2023-04-15T02:25:53.463Z,83.15
2023-04-15T02:27:26.163Z,83.25
2023-04-15T02:28:57.822Z,83.69
2023-04-15T02:30:29.486Z,84.30
2023-04-15T02:32:01.284Z,83.75
2023-04-15T02:33:33.264Z,83.18
2023-04-15T02:35:06.850Z,83.18
2023-04-15T02:36:40.656Z,83.22
2023-04-15T02:38:12.569Z,82.57
2023-04-15T02:39:44.185Z,82.97
2023-04-15T02:41:15.810Z,82.84
2023-04-15T02:42:49.096Z,83.10
2023-04-15T02:44:23.672Z,83.46
2023-04-15T02:45:57.206Z,82.91
2023-04-15T02:47:28.888Z,83.02
2023-04-15T02:49:01.351Z,83.02
2023-04-15T02:50:33.181Z,82.06
2023-04-15T02:52:05.002Z,81.93
2023-04-15T02:53:36.528Z,82.51
2023-04-15T02:55:09.722Z,82.15
2023-04-15T02:56:42.405Z,82.58
2023-04-15T02:58:13.969Z,83.02
2023-04-15T02:59:45.802Z,83.42
2023-04-15T03:01:17.604Z,83.70
2023-04-15T03:02:52.435Z,84.62
2023-04-15T03:04:24.190Z,84.11
2023-04-15T03:05:55.812Z,84.00
2023-04-15T03:07:27.718Z,84.24
2023-04-15T03:09:00.974Z,84.58
2023-04-15T03:10:35.672Z,84.25
2023-04-15T03:12:07.370Z,84.32
2023-04-15T03:13:41.850Z,84.22
2023-04-15T03:15:20.414Z,83.64
2023-04-15T03:16:56.021Z,84.17
2023-04-15T03:18:29.314Z,84.27
2023-04-15T03:20:05.880Z,83.88
2023-04-15T03:21:37.501Z,83.72
2023-04-15T03:23:09.197Z,83.95
2023-04-15T03:24:40.924Z,84.08
2023-04-15T03:26:27.835Z,83.98
2023-04-15T03:28:01.376Z,83.95
2023-04-15T03:29:33.056Z,84.28
2023-04-15T03:31:04.720Z,83.45
2023-04-15T03:32:36.406Z,83.53
2023-04-15T03:34:08.100Z,83.36
2023-04-15T03:35:40.840Z,84.04
2023-04-15T03:37:12.473Z,83.89
2023-04-15T03:38:44.109Z,83.74
2023-04-15T03:40:15.842Z,83.64
2023-04-15T03:41:47.531Z,83.47
2023-04-15T03:43:19.258Z,84.08
2023-04-15T03:44:51.024Z,83.93
2023-04-15T03:46:22.692Z,83.62
2023-04-15T03:47:54.289Z,83.59
2023-04-15T03:49:26.047Z,83.36
2023-04-15T03:50:57.578Z,83.86
2023-04-15T03:52:29.158Z,83.63
2023-04-15T03:54:00.778Z,83.91
2023-04-15T03:55:32.369Z,84.12
2023-04-15T03:57:03.957Z,83.94
2023-04-15T03:58:35.870Z,84.21
2023-04-15T04:00:12.026Z,83.44
2023-04-15T04:01:43.581Z,83.87
2023-04-15T04:03:15.371Z,84.11
2023-04-15T04:04:47.273Z,84.20
2023-04-15T04:06:19.105Z,84.11
2023-04-15T04:07:50.745Z,84.25
2023-04-15T04:09:22.354Z,84.54
2023-04-15T04:10:54.054Z,84.36
2023-04-15T04:12:25.719Z,84.51
2023-04-15T04:13:57.257Z,84.31
2023-04-15T04:15:28.869Z,84.67
2023-04-15T04:17:00.574Z,84.37
2023-04-15T04:18:32.837Z,84.17
2023-04-15T04:20:05.764Z,84.02
2023-04-15T04:21:37.395Z,84.37
2023-04-15T04:23:09.014Z,85.13
2023-04-15T04:24:40.727Z,84.77
2023-04-15T04:26:12.467Z,84.68
2023-04-15T04:27:45.395Z,84.97
2023-04-15T04:29:16.978Z,85.08
2023-04-15T04:30:48.768Z,84.69
2023-04-15T04:32:20.477Z,85.27
2023-04-15T04:33:52.048Z,84.85
2023-04-15T04:35:23.630Z,84.50
2023-04-15T04:36:55.330Z,84.71
2023-04-15T04:38:26.859Z,84.96
2023-04-15T04:39:58.545Z,84.55
2023-04-15T04:41:30.280Z,84.67
2023-04-15T04:43:01.916Z,84.95
2023-04-15T04:44:33.516Z,85.07
2023-04-15T04:46:05.446Z,84.32
2023-04-15T04:47:37.109Z,84.52
2023-04-15T04:49:08.634Z,84.81
2023-04-15T04:50:40.358Z,85.32
2023-04-15T04:52:12.326Z,84.96
2023-04-15T04:53:43.931Z,84.90
2023-04-15T04:55:15.990Z,85.20
2023-04-15T04:56:47.577Z,84.52
2023-04-15T04:58:19.090Z,85.41
2023-04-15T04:59:51.006Z,85.33
2023-04-15T05:01:22.679Z,85.10
2023-04-15T05:02:54.506Z,84.52
2023-04-15T05:04:26.547Z,84.70
2023-04-15T05:05:58.208Z,85.17
2023-04-15T05:07:29.834Z,85.33
2023-04-15T05:09:01.965Z,85.31
2023-04-15T05:10:33.842Z,84.55
2023-04-15T05:12:05.915Z,84.30
2023-04-15T05:13:38.810Z,84.91
2023-04-15T05:15:10.824Z,84.93
2023-04-15T05:16:42.450Z,84.97
2023-04-15T05:18:13.989Z,84.71
2023-04-15T05:19:45.783Z,84.56
2023-04-15T05:21:17.428Z,84.34
2023-04-15T05:22:49.035Z,84.06
2023-04-15T05:24:21.007Z,83.75
2023-04-15T05:25:52.521Z,84.41
2023-04-15T05:27:24.648Z,84.27
2023-04-15T05:28:56.181Z,84.42
2023-04-15T05:30:27.804Z,84.57
2023-04-15T05:31:59.413Z,84.69
2023-04-15T05:33:31.270Z,84.44
2023-04-15T05:35:03.128Z,83.83
2023-04-15T05:36:34.888Z,83.73
2023-04-15T05:38:06.605Z,83.70
2023-04-15T05:39:38.220Z,82.89
2023-04-15T05:41:09.811Z,82.26
2023-04-15T05:42:41.452Z,82.11
2023-04-15T05:44:13.035Z,81.95
2023-04-15T05:45:44.684Z,81.41
2023-04-15T05:47:16.683Z,81.55
2023-04-15T05:48:48.212Z,81.73
2023-04-15T05:50:21.042Z,81.18
2023-04-15T05:51:52.868Z,80.61
2023-04-15T05:53:24.566Z,80.26
2023-04-15T05:54:56.393Z,80.04
2023-04-15T05:56:28.062Z,79.91
2023-04-15T05:57:59.797Z,79.34
2023-04-15T05:59:31.786Z,79.34
2023-04-15T06:01:04.155Z,79.40
2023-04-15T06:02:36.544Z,78.79
2023-04-15T06:04:08.301Z,78.00
2023-04-15T06:05:40.702Z,78.91
2023-04-15T06:07:12.387Z,77.90
2023-04-15T06:08:43.991Z,78.25
2023-04-15T06:10:15.934Z,76.90
2023-04-15T06:11:47.469Z,75.24
2023-04-15T06:13:19.162Z,75.54
2023-04-15T06:14:51.236Z,75.81
2023-04-15T06:16:23.365Z,75.32
2023-04-15T06:17:55.029Z,74.70
2023-04-15T06:19:26.660Z,74.86
2023-04-15T06:20:58.482Z,75.25
2023-04-15T06:22:30.279Z,74.62
2023-04-15T06:24:02.212Z,73.74
2023-04-15T06:25:33.826Z,70.27
2023-04-15T06:27:05.449Z,67.52
2023-04-15T06:28:37.161Z,65.13
2023-04-15T06:30:09.587Z,65.53
2023-04-15T06:31:41.873Z,66.93
2023-04-15T06:33:13.720Z,67.50
2023-04-15T06:34:45.295Z,68.12
2023-04-15T06:36:16.958Z,68.11
2023-04-15T06:37:48.587Z,67.25
2023-04-15T06:39:20.183Z,60.46
2023-04-15T06:40:51.874Z,55.53
2023-04-15T06:42:23.771Z,54.17
2023-04-15T06:43:55.720Z,51.82
2023-04-15T06:45:27.373Z,53.12
2023-04-15T06:46:59.021Z,53.55
2023-04-15T06:48:30.583Z,50.08
2023-04-15T06:50:02.256Z,49.73
2023-04-15T06:51:35.889Z,49.00
2023-04-15T06:53:07.596Z,47.55
2023-04-15T06:54:39.188Z,50.99
2023-04-15T06:56:11.427Z,54.07
2023-04-15T06:57:43.050Z,52.00
2023-04-15T06:59:14.821Z,49.26
2023-04-15T07:00:46.584Z,46.36
2023-04-15T07:02:18.698Z,42.66
2023-04-15T07:03:50.437Z,40.58
2023-04-15T07:05:22.094Z,36.52
2023-04-15T07:06:55.640Z,38.54
2023-04-15T07:08:27.173Z,40.10
2023-04-15T07:09:58.962Z,42.23
2023-04-15T07:11:31.009Z,41.93
2023-04-15T07:13:02.810Z,40.43
2023-04-15T07:14:34.449Z,37.12
2023-04-15T07:16:06.056Z,35.08
2023-04-15T07:17:37.779Z,30.28
2023-04-15T07:19:09.339Z,29.25
2023-04-15T07:20:40.972Z,27.63
2023-04-15T07:22:13.068Z,26.90
2023-04-15T07:23:44.702Z,30.57
2023-04-15T07:25:17.685Z,29.55
2023-04-15T07:26:49.629Z,30.90
2023-04-15T07:28:21.487Z,30.14
2023-04-15T07:29:53.512Z,33.68
2023-04-15T07:31:25.238Z,35.99
2023-04-15T07:32:58.717Z,36.61
2023-04-15T07:34:31.507Z,33.76
2023-04-15T07:36:04.519Z,32.43
2023-04-15T07:37:36.239Z,32.30
2023-04-15T07:39:08.090Z,35.95
2023-04-15T07:40:40.468Z,41.10
2023-04-15T07:42:12.309Z,45.18
2023-04-15T07:43:45.015Z,42.75
2023-04-15T07:45:17.028Z,42.12
2023-04-15T07:46:48.721Z,33.84
2023-04-15T07:48:20.560Z,29.71
2023-04-15T07:49:52.208Z,29.47
2023-04-15T07:51:23.903Z,30.51
2023-04-15T07:52:55.904Z,30.09
2023-04-15T07:54:27.525Z,32.41
2023-04-15T07:55:59.203Z,31.75
2023-04-15T07:57:30.980Z,31.61
2023-04-15T07:59:04.725Z,30.31
2023-04-15T08:00:38.217Z,30.12
2023-04-15T08:02:11.363Z,33.45
2023-04-15T08:03:43.271Z,36.37
2023-04-15T08:05:15.324Z,38.21
2023-04-15T08:06:48.377Z,37.78
2023-04-15T08:08:19.985Z,38.71
2023-04-15T08:09:51.807Z,37.64
2023-04-15T08:11:24.544Z,39.58
2023-04-15T08:12:56.511Z,41.48
2023-04-15T08:14:29.256Z,41.83
2023-04-15T08:16:23.447Z,42.97
2023-04-15T08:17:55.164Z,41.59
2023-04-15T08:19:27.041Z,41.61
2023-04-15T08:20:58.624Z,41.50
2023-04-15T08:22:30.490Z,40.86
2023-04-15T08:24:03.202Z,41.01
2023-04-15T08:25:34.819Z,41.20
2023-04-15T08:27:07.940Z,38.37
2023-04-15T08:28:41.582Z,39.64
2023-04-15T08:30:14.016Z,42.22
2023-04-15T08:31:45.855Z,40.15
2023-04-15T08:33:17.606Z,38.15
2023-04-15T08:34:49.347Z,36.20
2023-04-15T08:36:21.161Z,36.48
2023-04-15T08:37:52.842Z,34.34
2023-04-15T08:39:24.501Z,35.48
2023-04-15T08:40:58.335Z,35.55
2023-04-15T08:42:44.965Z,37.63
2023-04-15T08:44:18.353Z,37.39
2023-04-15T08:45:51.818Z,37.48
2023-04-15T08:47:29.852Z,37.11
2023-04-15T08:49:04.855Z,35.57
2023-04-15T08:50:36.613Z,38.87
2023-04-15T08:52:09.445Z,39.42
2023-04-15T08:53:41.190Z,37.69
2023-04-15T08:55:14.525Z,40.78
2023-04-15T08:56:46.553Z,42.64
2023-04-15T08:58:19.753Z,41.92
2023-04-15T08:59:52.764Z,41.68
2023-04-15T09:01:24.879Z,40.96
2023-04-15T09:02:57.020Z,41.49
2023-04-15T09:04:29.246Z,42.31
2023-04-15T09:06:01.122Z,42.23
2023-04-15T09:07:35.820Z,43.05
2023-04-15T09:09:08.020Z,42.56
2023-04-15T09:10:39.650Z,44.16
2023-04-15T09:12:11.728Z,44.10
2023-04-15T09:13:43.560Z,44.13
2023-04-15T09:15:16.423Z,43.30
2023-04-15T09:17:04.456Z,43.33
2023-04-15T09:18:38.361Z,42.68
2023-04-15T09:20:10.293Z,43.08
2023-04-15T09:21:41.962Z,42.52
2023-04-15T09:23:15.568Z,42.58
2023-04-15T09:24:47.566Z,42.67
2023-04-15T09:26:19.168Z,42.20
2023-04-15T09:27:59.280Z,41.85
2023-04-15T09:29:31.475Z,40.17
2023-04-15T09:31:03.127Z,40.77
2023-04-15T09:32:35.012Z,37.39
2023-04-15T09:34:07.023Z,37.05
2023-04-15T09:35:38.701Z,37.82
2023-04-15T09:37:11.297Z,39.02
2023-04-15T09:39:09.128Z,36.98
2023-04-15T09:40:42.126Z,38.58
2023-04-15T09:42:14.133Z,39.60
2023-04-15T09:43:46.324Z,40.07
2023-04-15T09:45:18.037Z,42.01
2023-04-15T09:46:50.743Z,42.76
2023-04-15T09:48:26.837Z,44.44
2023-04-15T09:50:00.364Z,44.23
2023-04-15T09:51:35.849Z,44.11
2023-04-15T09:53:10.859Z,43.93
2023-04-15T09:54:45.168Z,43.34
2023-04-15T09:56:17.236Z,44.93
2023-04-15T09:57:48.873Z,45.56
2023-04-15T09:59:21.826Z,45.86
2023-04-15T10:00:55.367Z,45.12
2023-04-15T10:02:28.486Z,44.47
2023-04-15T10:04:03.788Z,44.82
2023-04-15T10:05:37.663Z,44.37
2023-04-15T10:07:10.083Z,45.07
2023-04-15T10:08:41.821Z,47.21
2023-04-15T10:10:14.700Z,49.36
2023-04-15T10:11:49.560Z,49.19
2023-04-15T10:13:23.951Z,48.38
2023-04-15T10:14:59.613Z,48.01
2023-04-15T10:16:32.986Z,47.58
2023-04-15T10:18:08.169Z,47.59
2023-04-15T10:19:41.508Z,45.77
2023-04-15T10:21:15.706Z,44.85
2023-04-15T10:22:48.023Z,46.18
2023-04-15T10:24:21.021Z,48.25
2023-04-15T10:25:56.752Z,47.24
2023-04-15T10:27:29.139Z,45.63
2023-04-15T10:29:01.352Z,45.50
2023-04-15T10:30:36.748Z,44.06
2023-04-15T10:32:09.709Z,45.93
2023-04-15T10:33:42.987Z,45.54
2023-04-15T10:35:15.553Z,44.24
2023-04-15T10:36:47.366Z,42.22
2023-04-15T10:38:42.430Z,42.88
2023-04-15T10:40:34.642Z,41.96
2023-04-15T10:42:17.352Z,41.33
2023-04-15T10:43:52.841Z,38.43
2023-04-15T10:45:37.814Z,36.93
2023-04-15T10:47:14.752Z,35.51
2023-04-15T10:48:48.826Z,37.12
2023-04-15T10:50:21.382Z,36.64
2023-04-15T10:51:58.969Z,37.55
2023-04-15T10:53:31.448Z,35.73
2023-04-15T10:55:20.303Z,37.96
2023-04-15T10:57:01.773Z,40.13
2023-04-15T10:58:42.990Z,40.67
2023-04-15T11:00:16.657Z,40.98
2023-04-15T11:01:54.293Z,40.23
2023-04-15T11:03:43.600Z,40.57
2023-04-15T11:05:17.376Z,39.57
2023-04-15T11:07:05.829Z,38.73
2023-04-15T11:08:56.802Z,38.56
2023-04-15T11:10:31.432Z,39.55
2023-04-15T11:12:10.450Z,40.55
2023-04-15T11:13:49.872Z,41.15
2023-04-15T11:15:40.939Z,40.75
2023-04-15T11:17:12.624Z,40.57
2023-04-15T11:18:55.881Z,39.04
2023-04-15T11:20:27.655Z,39.16
2023-04-15T11:22:12.583Z,39.24
2023-04-15T11:23:47.004Z,39.74
2023-04-15T11:25:26.715Z,38.79
2023-04-15T11:26:59.045Z,38.93
2023-04-15T11:28:32.351Z,38.76
2023-04-15T11:30:23.239Z,37.05
2023-04-15T11:32:05.091Z,36.86
2023-04-15T11:33:37.007Z,35.81
2023-04-15T11:35:08.875Z,34.57
2023-04-15T11:36:43.578Z,33.01
2023-04-15T11:38:16.748Z,30.31
2023-04-15T11:39:49.709Z,28.36
2023-04-15T11:41:22.916Z,25.55
2023-04-15T11:43:20.260Z,23.54
2023-04-15T11:45:07.538Z,21.57
2023-04-15T11:46:39.113Z,20.60
2023-04-15T11:48:12.050Z,19.35
2023-04-15T11:49:43.614Z,19.09
2023-04-15T11:51:15.567Z,20.19
2023-04-15T11:52:57.840Z,20.50
2023-04-15T11:54:29.451Z,23.42
2023-04-15T11:56:01.109Z,23.18
2023-04-15T11:57:32.765Z,23.91
2023-04-15T11:59:04.456Z,22.45
2023-04-15T12:00:36.667Z,25.87
2023-04-15T12:02:14.493Z,28.13
2023-04-15T12:03:47.511Z,29.59
2023-04-15T12:05:19.395Z,31.93
2023-04-15T12:06:51.010Z,31.20
2023-04-15T12:08:22.673Z,30.99
2023-04-15T12:09:57.954Z,29.89
2023-04-15T12:11:32.406Z,26.33
2023-04-15T12:13:07.468Z,21.30
2023-04-15T12:14:40.186Z,20.41
2023-04-15T12:16:12.328Z,20.07
2023-04-15T12:17:51.306Z,20.42
2023-04-15T12:19:29.737Z,20.82
2023-04-15T12:21:14.484Z,20.18
2023-04-15T12:22:46.046Z,22.72
2023-04-15T12:24:22.839Z,27.05
2023-04-15T12:25:54.635Z,28.77
2023-04-15T12:27:29.272Z,29.39
2023-04-15T12:29:02.064Z,30.37
2023-04-15T12:30:33.675Z,30.35
2023-04-15T12:32:10.468Z,30.03
2023-04-15T12:33:42.151Z,29.76
2023-04-15T12:35:13.783Z,29.51
2023-04-15T12:36:45.502Z,29.79
2023-04-15T12:38:17.079Z,29.92
2023-04-15T12:39:50.156Z,30.70
2023-04-15T12:41:22.467Z,31.16
2023-04-15T12:42:54.042Z,33.19
2023-04-15T12:44:26.143Z,32.04
2023-04-15T12:45:57.810Z,34.40
2023-04-15T12:47:29.503Z,35.00
2023-04-15T12:49:01.384Z,34.52
2023-04-15T12:50:33.077Z,33.62
2023-04-15T12:52:05.799Z,32.59
2023-04-15T12:53:37.430Z,32.63
2023-04-15T12:55:09.778Z,31.59
2023-04-15T12:56:41.562Z,31.21
2023-04-15T12:58:13.609Z,31.80
2023-04-15T12:59:45.576Z,30.52
2023-04-15T13:01:17.410Z,26.34
2023-04-15T13:02:49.364Z,26.33
2023-04-15T13:04:22.086Z,27.24
2023-04-15T13:05:53.985Z,29.46
2023-04-15T13:07:25.592Z,28.88
2023-04-15T13:08:58.783Z,27.04
2023-04-15T13:10:31.574Z,26.32
2023-04-15T13:12:05.303Z,27.24
2023-04-15T13:13:37.097Z,27.88
2023-04-15T13:15:11.474Z,28.97
2023-04-15T13:16:43.032Z,29.15
2023-04-15T13:18:15.673Z,29.38
2023-04-15T13:19:47.336Z,30.09
2023-04-15T13:21:19.940Z,29.67
2023-04-15T13:22:52.559Z,29.66
2023-04-15T13:24:24.237Z,31.24
2023-04-15T13:25:55.987Z,30.72
2023-04-15T13:27:27.594Z,31.63
2023-04-15T13:28:59.833Z,31.86
2023-04-15T13:30:31.623Z,32.56
2023-04-15T13:32:03.407Z,33.78
2023-04-15T13:33:35.329Z,32.53
2023-04-15T13:35:07.154Z,31.61
2023-04-15T13:36:38.722Z,31.83
2023-04-15T13:38:10.484Z,31.98
2023-04-15T13:39:42.349Z,32.34
2023-04-15T13:41:13.929Z,33.99
2023-04-15T13:42:45.850Z,29.43
2023-04-15T13:44:17.493Z,29.84
2023-04-15T13:45:51.438Z,30.51
2023-04-15T13:47:23.094Z,30.88
2023-04-15T13:48:54.723Z,30.22
2023-04-15T13:50:26.450Z,34.34
2023-04-15T13:51:58.042Z,34.60
2023-04-15T13:53:38.020Z,35.48
2023-04-15T13:55:20.461Z,35.81
2023-04-15T13:56:52.831Z,37.19
2023-04-15T13:58:24.433Z,37.27
2023-04-15T13:59:56.096Z,37.53
2023-04-15T14:01:28.377Z,39.24
2023-04-15T14:03:00.206Z,38.66
2023-04-15T14:04:32.558Z,39.55
2023-04-15T14:06:05.863Z,39.23
2023-04-15T14:07:42.377Z,39.91
2023-04-15T14:09:14.621Z,39.52
2023-04-15T14:10:48.499Z,39.15
2023-04-15T14:12:20.175Z,39.39
2023-04-15T14:13:51.848Z,39.35
2023-04-15T14:15:23.548Z,39.69
2023-04-15T14:16:56.384Z,40.93
2023-04-15T14:18:28.407Z,41.13
2023-04-15T14:19:59.946Z,41.27
2023-04-15T14:21:32.634Z,41.23
2023-04-15T14:23:04.295Z,41.60
2023-04-15T14:24:35.978Z,41.50
2023-04-15T14:26:08.124Z,40.97
2023-04-15T14:27:39.867Z,41.70
2023-04-15T14:29:11.509Z,40.92
2023-04-15T14:30:43.285Z,40.97
2023-04-15T14:32:16.759Z,39.92
2023-04-15T14:33:48.880Z,40.09
2023-04-15T14:35:20.920Z,37.98
2023-04-15T14:36:53.554Z,37.20
2023-04-15T14:38:25.384Z,37.77
2023-04-15T14:39:56.982Z,38.21
2023-04-15T14:41:28.648Z,37.78
2023-04-15T14:43:00.371Z,38.12
2023-04-15T14:46:09.200Z,38.73
2023-04-15T14:47:41.303Z,38.32
2023-04-15T14:49:13.109Z,38.08
2023-04-15T14:50:44.764Z,38.14
2023-04-15T14:52:16.599Z,37.73
2023-04-15T14:53:48.252Z,37.07
2023-04-15T14:55:20.424Z,38.19
2023-04-15T14:56:52.113Z,38.62
2023-04-15T14:58:23.731Z,38.68
2023-04-15T14:59:56.769Z,35.29
2023-04-15T15:01:28.847Z,35.75
2023-04-15T15:03:00.679Z,36.47
2023-04-15T15:04:33.459Z,37.42
2023-04-15T15:06:05.225Z,36.86
2023-04-15T15:07:38.310Z,36.29
2023-04-15T15:09:09.949Z,36.44
2023-04-15T15:10:48.456Z,35.47
2023-04-15T15:12:23.530Z,35.58
2023-04-15T15:13:55.738Z,35.49
2023-04-15T15:15:29.012Z,34.81
2023-04-15T15:17:01.066Z,35.81
2023-04-15T15:18:32.678Z,36.02
2023-04-15T15:20:04.998Z,36.35
2023-04-15T15:21:37.414Z,35.80
2023-04-15T15:23:09.193Z,36.72
2023-04-15T15:24:41.678Z,36.67
2023-04-15T15:26:13.333Z,36.49
2023-04-15T15:27:45.244Z,36.77
2023-04-15T15:29:16.909Z,36.93
2023-04-15T15:30:48.869Z,37.23
2023-04-15T15:32:20.782Z,38.00
2023-04-15T15:33:52.971Z,37.62
2023-04-15T15:35:26.007Z,38.35
2023-04-15T15:36:57.721Z,39.92
2023-04-15T15:38:30.409Z,39.42
2023-04-15T15:40:04.641Z,40.74
2023-04-15T15:41:37.088Z,42.00
2023-04-15T15:43:09.278Z,42.32
2023-04-15T15:44:40.930Z,42.57
2023-04-15T15:46:12.685Z,41.73
2023-04-15T15:47:44.449Z,41.21
2023-04-15T15:49:16.339Z,41.06
2023-04-15T15:50:48.102Z,41.94
2023-04-15T15:52:19.694Z,41.45
2023-04-15T15:53:51.502Z,42.28
2023-04-15T15:55:25.194Z,42.30
2023-04-15T15:56:57.657Z,42.69
2023-04-15T15:58:30.804Z,42.96
2023-04-15T16:01:37.699Z,44.08
2023-04-15T16:03:09.850Z,42.52
2023-04-15T16:04:43.200Z,42.51
2023-04-15T16:06:15.204Z,42.94
2023-04-15T16:07:46.865Z,44.13
2023-04-15T16:09:18.657Z,42.84
2023-04-15T16:10:50.402Z,43.39
2023-04-15T16:12:22.136Z,44.08
2023-04-15T16:13:54.019Z,43.78
2023-04-15T16:15:26.389Z,44.69
2023-04-15T16:16:58.131Z,44.11
2023-04-15T16:18:29.839Z,44.31
2023-04-15T16:20:05.557Z,44.83
2023-04-15T16:21:37.502Z,43.78
2023-04-15T16:23:16.693Z,43.92
2023-04-15T16:24:48.449Z,44.32
2023-04-15T16:26:20.090Z,44.24
2023-04-15T16:28:03.106Z,43.86
2023-04-15T16:29:37.523Z,43.83
2023-04-15T16:31:11.251Z,43.99
2023-04-15T16:32:43.442Z,44.43
2023-04-15T16:34:16.106Z,45.32
2023-04-15T16:35:47.786Z,45.05
2023-04-15T16:37:20.800Z,44.74
2023-04-15T16:38:53.196Z,44.69
2023-04-15T16:40:25.018Z,44.91
2023-04-15T16:41:57.631Z,44.80
2023-04-15T16:43:29.633Z,46.42
2023-04-15T16:45:01.255Z,45.08
2023-04-15T16:46:32.843Z,45.44
2023-04-15T16:48:04.856Z,45.81
2023-04-15T16:49:36.700Z,45.62
2023-04-15T16:51:08.337Z,47.09
2023-04-15T16:52:40.265Z,46.40
2023-04-15T16:54:11.903Z,46.32
2023-04-15T16:55:43.576Z,47.44
2023-04-15T16:57:18.867Z,46.75
2023-04-15T16:58:50.971Z,47.75
2023-04-15T17:00:22.761Z,48.59
2023-04-15T17:01:55.165Z,47.01
2023-04-15T17:03:27.148Z,47.30
2023-04-15T17:04:58.997Z,47.95
2023-04-15T17:06:30.786Z,49.74
2023-04-15T17:08:02.464Z,50.66
2023-04-15T17:09:34.225Z,51.30
2023-04-15T17:11:06.411Z,50.12
2023-04-15T17:12:38.238Z,52.12
2023-04-15T17:14:10.002Z,51.26
2023-04-15T17:15:41.677Z,52.79
2023-04-15T17:17:13.405Z,52.73
2023-04-15T17:18:47.390Z,52.99
2023-04-15T17:20:19.729Z,52.84
2023-04-15T17:21:58.315Z,52.79
2023-04-15T17:23:31.052Z,52.82
2023-04-15T17:25:05.896Z,54.34
2023-04-15T17:26:37.966Z,52.77
2023-04-15T17:28:09.772Z,53.67
2023-04-15T17:29:41.524Z,55.58
2023-04-15T17:31:13.348Z,55.21
2023-04-15T17:32:45.347Z,56.81
2023-04-15T17:34:17.186Z,56.25
2023-04-15T17:35:48.842Z,56.29
2023-04-15T17:37:20.613Z,58.13
2023-04-15T17:38:52.184Z,58.34
2023-04-15T17:40:23.881Z,60.50
2023-04-15T17:41:57.404Z,61.12
2023-04-15T17:43:29.132Z,62.73
2023-04-15T17:45:01.018Z,65.57
2023-04-15T17:46:32.854Z,63.50
2023-04-15T17:48:04.728Z,65.45
2023-04-15T17:49:37.815Z,66.18
2023-04-15T17:51:09.481Z,65.86
2023-04-15T17:52:41.375Z,66.33
2023-04-15T17:54:12.936Z,67.10
2023-04-15T17:55:44.893Z,67.16
2023-04-15T17:57:16.801Z,66.49
2023-04-15T17:58:48.446Z,67.33
2023-04-15T18:00:20.118Z,69.15
2023-04-15T18:01:53.800Z,69.66
2023-04-15T18:03:26.356Z,71.38
2023-04-15T18:04:58.412Z,71.48
2023-04-15T18:06:30.113Z,71.26
2023-04-15T18:08:01.936Z,70.60
2023-04-15T18:09:33.703Z,70.69
2023-04-15T18:11:05.570Z,71.47
2023-04-15T18:12:37.516Z,71.45
2023-04-15T18:14:09.291Z,72.30
2023-04-15T18:15:41.051Z,72.89
2023-04-15T18:17:14.585Z,72.76
2023-04-15T18:18:46.398Z,73.21
2023-04-15T18:20:18.969Z,73.23
2023-04-15T18:21:52.181Z,74.03
2023-04-15T18:23:23.810Z,74.61
2023-04-15T18:24:57.689Z,74.89
2023-04-15T18:26:29.389Z,75.18
2023-04-15T18:28:01.035Z,74.43
2023-04-15T18:29:33.858Z,75.54
2023-04-15T18:31:06.331Z,75.70
2023-04-15T18:32:38.664Z,75.53
2023-04-15T18:34:10.390Z,76.10
2023-04-15T18:35:43.040Z,75.99
2023-04-15T18:37:14.759Z,77.26
2023-04-15T18:38:46.648Z,76.86
2023-04-15T18:40:18.356Z,76.76
2023-04-15T18:41:50.144Z,78.25
2023-04-15T18:43:21.847Z,76.82
2023-04-15T18:44:53.876Z,76.97
2023-04-15T18:46:25.896Z,78.11
2023-04-15T18:47:57.988Z,76.46
2023-04-15T18:49:33.253Z,76.97
2023-04-15T18:51:05.107Z,76.72
2023-04-15T18:52:37.042Z,77.10
2023-04-15T18:54:08.761Z,77.89
2023-04-15T18:55:40.807Z,78.38
2023-04-15T18:57:12.611Z,78.18
2023-04-15T18:59:18.128Z,77.25
2023-04-15T19:00:40.398Z,77.79
2023-04-15T19:02:12.305Z,77.49
2023-04-15T19:03:44.148Z,77.76
2023-04-15T19:05:16.066Z,79.47
2023-04-15T19:06:48.102Z,80.08
2023-04-15T19:08:19.860Z,79.92
2023-04-15T19:09:51.651Z,79.07
2023-04-15T19:11:23.263Z,78.95
2023-04-15T19:12:55.667Z,79.40
2023-04-15T19:14:27.422Z,80.60
2023-04-15T19:15:59.181Z,79.66
2023-04-15T19:17:31.489Z,80.66
2023-04-15T19:19:03.815Z,81.00
2023-04-15T19:20:40.011Z,81.74
2023-04-15T19:22:12.397Z,81.36
2023-04-15T19:23:44.123Z,80.72
2023-04-15T19:25:15.996Z,79.79
2023-04-15T19:26:50.406Z,79.74
2023-04-15T19:28:22.108Z,80.16
2023-04-15T19:29:54.066Z,80.03
2023-04-15T19:31:26.381Z,79.35
2023-04-15T19:32:58.499Z,80.83
2023-04-15T19:34:30.426Z,79.94
2023-04-15T19:36:07.039Z,81.08
2023-04-15T19:37:38.763Z,79.83
2023-04-15T19:39:10.941Z,81.50
2023-04-15T19:40:42.751Z,80.92
2023-04-15T19:42:14.675Z,81.82
2023-04-15T19:43:46.702Z,82.14
2023-04-15T19:45:18.352Z,82.08
2023-04-15T19:46:52.743Z,82.01
2023-04-15T19:48:25.032Z,81.84
2023-04-15T19:49:57.031Z,82.35
2023-04-15T19:51:29.554Z,81.69
2023-04-15T19:53:01.330Z,80.50
2023-04-15T19:54:33.017Z,81.08
2023-04-15T19:56:05.166Z,82.44
2023-04-15T19:57:37.083Z,82.83
2023-04-15T19:59:08.832Z,82.05
2023-04-15T20:00:40.587Z,81.66